Date,TemperatureHighF,TemperatureAvgF,TemperatureLowF,DewpointHighF,DewpointAvgF,DewpointLowF,HumidityHigh,HumidityAvg,HumidityLow,PressureMaxIn,PressureMinIn,WindSpeedMaxMPH,WindSpeedAvgMPH,GustSpeedMaxMPH,PrecipitationSumIn
2013-4-25,42,38,34,20,7,-100,51,33,29,29.78,29.69,27,-31,34,0.00
2013-4-26,41,34,27,24,14,8,67,45,32,29.74,29.48,22,8,32,0.00
2013-4-27,44,36,30,24,17,13,68,47,30,29.89,29.50,28,10,30,0.00
2013-4-28,43,35,28,24,13,7,65,40,29,30.15,29.90,15,8,21,0.00
2013-4-29,43,36,27,24,20,14,74,54,37,30.19,30.09,11,4,14,0.00
2013-4-30,41,38,35,34,28,21,91,70,47,30.09,29.82,11,4,20,0.00
2013-5-1,45,39,31,33,27,22,96,67,48,29.82,29.54,13,5,19,0.00
2013-5-2,40,38,35,38,34,29,95,87,64,29.86,29.63,9,4,12,0.04
2013-5-3,44,39,34,38,36,33,95,88,74,29.92,29.79,16,4,26,0.00
2013-5-4,39,36,33,37,35,32,97,93,85,29.95,29.75,9,3,11,0.30
2013-5-5,46,40,35,35,26,21,90,58,40,30.13,29.95,12,5,16,0.00
2013-5-6,45,40,34,31,28,24,76,63,49,30.26,30.13,18,5,20,0.00
2013-5-7,47,41,36,33,27,-100,80,62,51,30.29,30.24,12,-6,15,0.00
2013-5-8,54,44,35,33,30,28,86,62,38,30.28,30.22,11,4,15,0.00
2013-5-9,52,46,38,38,30,25,70,56,47,30.31,30.23,11,4,21,0.00
2013-5-10,60,50,38,37,34,31,80,55,37,30.24,29.94,15,4,16,0.00
2013-5-11,54,49,44,43,39,35,80,67,54,29.94,29.57,10,3,11,0.00
2013-5-12,52,48,44,46,41,37,92,78,69,29.57,29.46,8,3,12,0.07
2013-5-13,53,46,41,42,30,17,96,60,28,29.47,29.40,14,6,21,0.07
2013-5-14,47,41,36,32,21,16,75,46,35,29.62,29.47,9,4,15,0.00
2013-5-15,49,42,38,34,30,26,83,64,43,29.75,29.63,20,5,26,0.00
2013-5-16,43,39,36,38,35,30,95,85,61,29.73,29.46,12,6,16,0.02
2013-5-17,40,36,32,39,34,27,96,94,77,29.55,29.39,13,4,21,0.56
2013-5-18,40,33,26,28,23,16,89,69,41,30.18,29.55,18,6,24,0.06
2013-5-19,46,39,32,28,18,14,74,45,34,30.61,30.19,13,6,20,0.00
2013-5-20,52,43,34,29,25,22,73,50,36,30.64,30.55,13,5,16,0.00
2013-5-21,51,44,36,35,31,26,74,61,45,30.57,30.28,13,4,20,0.00
2013-5-22,53,46,40,41,35,32,88,66,48,30.27,30.13,19,4,23,0.00
2013-5-23,57,49,43,44,42,41,96,79,60,30.16,30.09,11,4,14,0.00
2013-5-24,66,53,42,44,41,39,91,66,43,30.09,29.96,10,3,15,0.00
2013-5-25,68,56,47,44,38,32,72,53,30,29.99,29.88,16,5,28,0.00
2013-5-26,60,52,43,45,41,36,87,68,45,29.94,29.86,10,3,15,0.00
2013-5-27,73,60,49,48,45,42,82,59,37,29.91,29.75,11,4,16,0.00
2013-5-28,72,58,45,53,46,41,85,66,45,29.77,29.63,7,2,11,0.00
2013-5-29,77,64,52,50,46,43,80,54,34,29.75,29.64,11,4,15,0.00
2013-5-30,68,58,53,48,45,42,78,61,44,30.00,29.75,11,5,18,0.00
2013-5-31,59,52,46,49,46,43,91,80,66,30.16,30.01,14,5,21,0.00
2013-6-1,55,50,46,47,45,43,93,83,73,30.21,30.16,14,5,19,0.00
2013-6-2,54,49,46,48,46,44,95,88,72,30.24,30.09,13,4,18,0.20
2013-6-3,58,51,46,48,45,41,95,79,60,30.08,29.75,9,3,13,0.00
2013-6-4,58,52,47,46,41,36,91,68,45,29.82,29.69,16,4,28,0.00
2013-6-5,59,52,46,43,40,36,84,65,45,29.96,29.83,19,5,22,0.00
2013-6-6,67,56,46,44,40,36,76,55,38,29.95,29.68,11,3,18,0.00
2013-6-7,72,58,48,46,43,40,83,58,35,29.92,29.68,15,3,25,0.00
2013-6-8,71,60,52,51,43,-100,71,55,42,30.10,29.92,13,4,16,0.00
2013-6-9,74,65,55,53,48,43,76,54,35,30.20,30.11,14,4,18,0.00
2013-6-10,74,64,58,51,48,45,68,56,39,30.23,30.12,12,4,19,0.00
2013-6-11,73,65,54,51,47,45,79,55,40,30.13,29.97,13,4,19,0.00
2013-6-12,76,65,56,52,47,41,70,53,30,30.00,29.93,9,3,14,0.00
2013-6-13,67,58,51,53,47,42,85,67,46,30.18,29.95,12,5,23,0.00
2013-6-14,70,59,51,54,48,44,89,68,47,30.25,30.17,10,4,13,0.00
2013-6-15,70,60,54,55,51,47,83,73,59,30.33,30.22,12,4,15,0.00
2013-6-16,77,67,56,60,54,48,81,65,51,30.25,30.10,8,3,10,0.00
2013-6-17,80,70,62,59,54,50,75,58,41,30.11,29.84,11,4,14,0.00
2013-6-18,83,73,61,57,51,44,78,50,25,29.88,29.76,13,3,23,0.00
2013-6-19,73,66,59,52,49,45,69,55,38,29.96,29.89,20,4,22,0.00
2013-6-20,68,60,54,54,51,47,83,71,59,30.02,29.96,14,5,25,0.00
2013-6-21,56,52,49,50,46,42,85,78,65,30.12,30.03,12,5,14,0.00
2013-6-22,68,59,52,51,46,43,82,65,41,30.06,29.77,11,4,18,0.00
2013-6-23,68,62,54,51,48,45,79,61,49,29.77,29.62,10,2,18,0.00
2013-6-24,70,63,56,53,50,47,81,63,50,29.68,29.60,11,4,14,0.00
2013-6-25,72,64,57,57,52,49,76,64,54,29.63,29.59,10,2,14,0.00
2013-6-26,80,69,60,57,54,51,80,61,39,29.86,29.62,19,3,27,0.00
2013-6-27,68,61,57,57,55,53,86,79,60,30.08,29.86,14,6,18,0.00
2013-6-28,61,57,55,55,53,51,92,87,80,30.20,30.08,12,5,18,0.00
2013-6-29,65,59,55,57,54,51,92,81,69,30.15,30.00,10,3,15,0.00
2013-6-30,62,56,54,54,51,49,91,82,64,30.06,29.82,9,4,16,0.00
2013-7-1,60,55,52,53,51,49,96,86,68,29.82,29.60,11,4,16,0.18
2013-7-2,61,56,52,51,48,43,92,75,55,29.88,29.60,16,4,27,0.00
2013-7-3,61,56,52,50,47,44,88,73,54,30.03,29.90,13,4,20,0.00
2013-7-4,58,54,52,50,48,43,90,80,57,30.06,29.99,14,4,21,0.06
2013-7-5,61,55,52,51,49,46,88,79,60,30.09,30.02,15,4,16,0.00
2013-7-6,61,55,52,52,50,48,92,82,66,30.03,29.77,11,5,16,0.00
2013-7-7,66,56,52,53,51,48,95,83,59,29.77,29.58,23,5,28,0.00
2013-7-8,59,54,49,50,47,-100,93,82,69,29.82,29.68,11,4,16,0.01
2013-7-9,64,57,53,52,50,48,88,77,59,30.03,29.83,14,5,16,0.00
2013-7-10,70,62,57,54,50,-100,78,67,55,30.05,29.93,11,4,14,0.00
2013-7-11,75,66,58,56,54,50,89,65,47,29.95,29.90,12,4,13,0.01
2013-7-12,76,67,59,57,53,51,77,63,46,29.96,29.90,9,4,12,0.00
2013-7-13,69,65,61,57,54,51,80,68,60,30.17,29.95,11,5,19,0.00
2013-7-14,65,59,55,55,53,52,92,79,67,30.33,30.18,16,6,19,0.00
2013-7-15,61,58,55,54,52,50,86,81,77,30.36,30.25,13,4,19,0.00
2013-7-16,67,61,57,57,54,52,88,79,68,30.26,30.14,11,4,15,0.00
2013-7-17,71,64,58,61,57,53,88,78,69,30.15,30.06,11,4,13,0.00
2013-7-18,71,66,61,61,59,56,87,79,70,30.15,30.08,13,4,16,0.00
2013-7-19,71,66,63,60,56,54,76,71,56,30.19,30.11,15,5,22,0.00
2013-7-20,70,64,56,56,53,50,93,71,51,30.15,30.06,11,4,16,0.08
2013-7-21,78,67,57,54,49,46,74,54,37,30.07,29.93,21,7,26,0.00
2013-7-22,78,68,59,56,51,47,67,54,41,30.08,29.96,18,4,28,0.00
2013-7-23,76,67,60,58,53,49,79,61,51,30.11,30.02,10,3,12,0.00
2013-7-24,77,68,60,60,56,52,80,65,51,30.04,29.92,11,3,12,0.00
2013-7-25,73,66,61,62,59,56,92,79,65,30.06,29.95,13,4,25,0.03
2013-7-26,69,63,60,61,59,57,91,84,75,30.30,30.06,12,4,20,0.01
2013-7-27,69,64,59,60,58,56,89,81,72,30.36,30.30,11,4,13,0.00
2013-7-28,72,65,60,62,59,57,92,81,67,30.31,30.16,9,3,12,0.00
2013-7-29,72,65,60,61,58,56,88,80,68,30.20,30.14,11,4,14,0.00
2013-7-30,72,65,60,62,58,55,86,78,70,30.22,30.16,11,4,16,0.00
2013-7-31,70,64,60,60,58,56,89,79,68,30.22,30.13,12,4,14,0.00
2013-8-1,69,62,58,59,56,55,89,81,70,30.15,29.96,9,3,18,0.00
2013-8-2,72,64,59,57,55,52,88,74,53,30.00,29.80,13,4,22,0.00
2013-8-3,69,64,59,57,53,49,88,68,51,29.88,29.75,13,4,27,0.00
2013-8-4,66,62,58,55,53,50,85,73,58,29.96,29.88,9,4,13,0.00
2013-8-5,67,61,56,55,53,49,93,75,55,29.98,29.94,13,4,19,0.00
2013-8-6,69,61,57,55,53,51,89,75,58,29.96,29.90,10,3,11,0.03
2013-8-7,61,59,56,57,55,54,93,88,78,29.90,29.75,7,1,9,0.14
2013-8-8,63,58,56,57,53,49,95,84,69,29.82,29.73,16,5,26,0.02
2013-8-9,56,54,51,54,52,48,96,91,75,29.82,29.73,12,6,14,0.46
2013-8-10,60,56,53,56,48,-100,96,87,80,29.99,29.76,9,-9,11,0.08
2013-8-11,58,56,53,56,55,52,97,95,89,30.03,29.99,9,3,12,0.51
2013-8-12,68,59,55,61,57,55,98,92,76,30.06,30.01,11,4,12,0.36
2013-8-13,69,60,57,59,57,53,98,88,68,30.02,29.96,13,4,18,0.00
2013-8-14,61,57,55,53,52,51,89,82,71,30.04,29.90,11,3,14,0.00
2013-8-15,64,58,54,53,52,49,91,79,62,29.90,29.76,10,3,13,0.00
2013-8-16,59,56,53,56,53,49,92,87,82,29.76,29.65,6,1,8,0.08
2013-8-17,68,59,54,57,54,52,97,86,63,29.66,29.50,9,3,10,0.03
2013-8-18,61,58,55,58,54,-100,97,92,88,29.64,29.48,5,1,9,0.02
2013-8-19,58,56,54,57,54,53,96,94,90,29.75,29.65,8,2,9,0.32
2013-8-20,60,56,52,55,53,50,96,88,74,29.85,29.75,14,3,18,0.02
2013-8-21,58,55,53,54,52,50,96,90,74,29.86,29.76,7,2,12,0.12
2013-8-22,56,54,51,54,52,50,97,95,92,29.76,29.69,8,2,8,0.43
2013-8-23,64,58,53,56,54,51,97,86,68,29.69,29.52,14,3,16,0.00
2013-8-24,71,59,51,55,49,42,97,73,39,29.69,29.56,15,4,15,0.01
2013-8-25,64,56,46,51,44,40,84,65,49,29.74,29.68,10,3,14,0.00
2013-8-26,65,57,47,53,49,44,92,76,59,29.76,29.71,7,2,11,0.00
2013-8-27,63,57,51,55,50,47,88,79,66,29.80,29.72,10,2,12,0.00
2013-8-28,60,57,53,54,51,47,95,80,65,29.73,29.56,14,4,16,0.24
2013-8-29,57,54,51,55,50,-100,95,92,91,29.87,29.54,11,5,15,0.03
2013-8-30,60,56,53,56,54,52,98,91,80,29.97,29.87,7,2,10,0.00
2013-8-31,58,55,53,54,52,51,93,89,78,29.93,29.83,8,2,13,0.01
2013-9-1,58,54,52,54,52,51,95,89,81,29.85,29.71,8,2,10,0.00
2013-9-2,65,57,52,54,51,48,96,83,56,29.71,29.50,26,6,32,0.12
2013-9-3,65,56,52,54,51,50,94,86,65,29.53,29.28,13,5,23,0.00